sensor_id;sensor_type;location;lat;lon;timestamp;pressure;altitude;pressure_sealevel;temperature;humidity
16481;BME280;44634;54.110;12.138;2023-03-20T00:01:16;101239.41;;;12.62;100.00
16481;BME280;44634;54.110;12.138;2023-03-20T00:03:45;101254.31;;;12.44;100.00
16481;BME280;44634;54.110;12.138;2023-03-20T00:06:14;101250.69;;;12.35;100.00
16481;BME280;44634;54.110;12.138;2023-03-20T00:08:43;101265.16;;;12.21;100.00
16481;BME280;44634;54.110;12.138;2023-03-20T00:11:26;101262.00;;;12.57;100.00
16481;BME280;44634;54.110;12.138;2023-03-20T00:13:57;101240.53;;;12.50;100.00
16481;BME280;44634;54.110;12.138;2023-03-20T00:16:30;101260.06;;;12.49;100.00
16481;BME280;44634;54.110;12.138;2023-03-20T00:18:59;101263.53;;;12.30;100.00
16481;BME280;44634;54.110;12.138;2023-03-20T00:21:27;101294.75;;;12.27;100.00
16481;BME280;44634;54.110;12.138;2023-03-20T00:23:55;101303.69;;;11.95;100.00
16481;BME280;44634;54.110;12.138;2023-03-20T00:26:25;101348.53;;;12.08;100.00
16481;BME280;44634;54.110;12.138;2023-03-20T00:28:55;101376.09;;;11.96;100.00
16481;BME280;44634;54.110;12.138;2023-03-20T00:31:25;101389.41;;;12.05;100.00
16481;BME280;44634;54.110;12.138;2023-03-20T00:33:56;101430.16;;;11.40;100.00
16481;BME280;44634;54.110;12.138;2023-03-20T00:36:24;101483.72;;;11.44;100.00
16481;BME280;44634;54.110;12.138;2023-03-20T00:38:52;101490.00;;;11.75;100.00
16481;BME280;44634;54.110;12.138;2023-03-20T00:41:23;101502.31;;;10.88;100.00
16481;BME280;44634;54.110;12.138;2023-03-20T00:43:54;101536.56;;;10.67;100.00
16481;BME280;44634;54.110;12.138;2023-03-20T00:46:23;101545.53;;;10.31;100.00
16481;BME280;44634;54.110;12.138;2023-03-20T00:48:51;101561.44;;;10.64;100.00
16481;BME280;44634;54.110;12.138;2023-03-20T00:51:21;101523.81;;;10.83;100.00
16481;BME280;44634;54.110;12.138;2023-03-20T00:53:48;101526.53;;;10.37;100.00
16481;BME280;44634;54.110;12.138;2023-03-20T00:56:29;101527.53;;;10.47;100.00
16481;BME280;44634;54.110;12.138;2023-03-20T00:58:58;101512.66;;;11.02;100.00
16481;BME280;44634;54.110;12.138;2023-03-20T01:01:27;101493.91;;;10.71;100.00
16481;BME280;44634;54.110;12.138;2023-03-20T01:03:55;101475.25;;;10.95;100.00
16481;BME280;44634;54.110;12.138;2023-03-20T01:06:24;101493.88;;;10.83;100.00
16481;BME280;44634;54.110;12.138;2023-03-20T01:08:54;101489.22;;;10.86;100.00
16481;BME280;44634;54.110;12.138;2023-03-20T01:11:23;101484.03;;;10.62;100.00
16481;BME280;44634;54.110;12.138;2023-03-20T01:13:51;101477.59;;;11.32;100.00
16481;BME280;44634;54.110;12.138;2023-03-20T01:16:21;101467.31;;;10.95;100.00
16481;BME280;44634;54.110;12.138;2023-03-20T01:18:50;101459.16;;;10.76;100.00
16481;BME280;44634;54.110;12.138;2023-03-20T01:21:19;101466.47;;;11.06;100.00
16481;BME280;44634;54.110;12.138;2023-03-20T01:23:48;101460.91;;;11.20;100.00
16481;BME280;44634;54.110;12.138;2023-03-20T01:26:22;101459.81;;;11.55;100.00
16481;BME280;44634;54.110;12.138;2023-03-20T01:28:53;101440.72;;;10.97;100.00
16481;BME280;44634;54.110;12.138;2023-03-20T01:31:21;101459.56;;;11.26;100.00
16481;BME280;44634;54.110;12.138;2023-03-20T01:33:49;101455.19;;;11.36;100.00
16481;BME280;44634;54.110;12.138;2023-03-20T01:36:19;101453.28;;;11.38;100.00
16481;BME280;44634;54.110;12.138;2023-03-20T01:38:54;101457.59;;;11.39;100.00
16481;BME280;44634;54.110;12.138;2023-03-20T01:41:23;101427.88;;;11.68;100.00
16481;BME280;44634;54.110;12.138;2023-03-20T01:43:52;101422.44;;;11.48;100.00
16481;BME280;44634;54.110;12.138;2023-03-20T01:46:23;101432.75;;;11.19;100.00
16481;BME280;44634;54.110;12.138;2023-03-20T01:49:00;101438.91;;;11.52;100.00
16481;BME280;44634;54.110;12.138;2023-03-20T01:51:32;101454.78;;;11.09;100.00
16481;BME280;44634;54.110;12.138;2023-03-20T01:54:05;101474.31;;;10.85;100.00
16481;BME280;44634;54.110;12.138;2023-03-20T01:56:37;101506.28;;;11.16;100.00
16481;BME280;44634;54.110;12.138;2023-03-20T01:59:10;101519.16;;;10.76;100.00
16481;BME280;44634;54.110;12.138;2023-03-20T02:01:40;101548.47;;;10.84;100.00
16481;BME280;44634;54.110;12.138;2023-03-20T02:04:10;101563.91;;;11.01;100.00
16481;BME280;44634;54.110;12.138;2023-03-20T02:06:38;101569.22;;;10.55;100.00
16481;BME280;44634;54.110;12.138;2023-03-20T02:09:08;101581.53;;;10.67;100.00
16481;BME280;44634;54.110;12.138;2023-03-20T02:11:37;101590.09;;;10.82;100.00
16481;BME280;44634;54.110;12.138;2023-03-20T02:14:07;101592.94;;;10.67;100.00
16481;BME280;44634;54.110;12.138;2023-03-20T02:16:35;101581.56;;;10.78;100.00
16481;BME280;44634;54.110;12.138;2023-03-20T02:19:04;101593.34;;;10.74;100.00
16481;BME280;44634;54.110;12.138;2023-03-20T02:25:06;101586.38;;;10.73;100.00
16481;BME280;44634;54.110;12.138;2023-03-20T02:27:52;101582.03;;;10.94;100.00
16481;BME280;44634;54.110;12.138;2023-03-20T02:30:59;101578.63;;;10.70;100.00
16481;BME280;44634;54.110;12.138;2023-03-20T02:37:18;101546.34;;;10.89;100.00
16481;BME280;44634;54.110;12.138;2023-03-20T02:39:54;101542.66;;;10.45;100.00
16481;BME280;44634;54.110;12.138;2023-03-20T02:42:31;101528.50;;;10.68;100.00
16481;BME280;44634;54.110;12.138;2023-03-20T02:45:09;101494.72;;;10.83;100.00
16481;BME280;44634;54.110;12.138;2023-03-20T02:47:47;101472.50;;;10.75;100.00
16481;BME280;44634;54.110;12.138;2023-03-20T02:50:22;101499.31;;;10.59;100.00
16481;BME280;44634;54.110;12.138;2023-03-20T02:53:00;101506.09;;;10.28;100.00
16481;BME280;44634;54.110;12.138;2023-03-20T02:55:38;101537.97;;;10.49;100.00
16481;BME280;44634;54.110;12.138;2023-03-20T02:58:13;101509.28;;;10.78;100.00
16481;BME280;44634;54.110;12.138;2023-03-20T03:00:47;101482.94;;;11.10;100.00
16481;BME280;44634;54.110;12.138;2023-03-20T03:03:20;101451.94;;;10.67;100.00
16481;BME280;44634;54.110;12.138;2023-03-20T03:05:53;101433.53;;;10.65;100.00
16481;BME280;44634;54.110;12.138;2023-03-20T03:08:26;101422.97;;;10.65;100.00
16481;BME280;44634;54.110;12.138;2023-03-20T03:10:59;101440.41;;;10.57;100.00
16481;BME280;44634;54.110;12.138;2023-03-20T03:13:32;101458.44;;;10.74;100.00
16481;BME280;44634;54.110;12.138;2023-03-20T03:16:05;101451.94;;;10.67;100.00
16481;BME280;44634;54.110;12.138;2023-03-20T03:18:37;101440.25;;;10.69;100.00
16481;BME280;44634;54.110;12.138;2023-03-20T03:21:07;101427.06;;;10.58;100.00
16481;BME280;44634;54.110;12.138;2023-03-20T03:23:42;101462.50;;;10.56;100.00
16481;BME280;44634;54.110;12.138;2023-03-20T03:26:17;101453.63;;;10.46;100.00
16481;BME280;44634;54.110;12.138;2023-03-20T03:28:49;101475.47;;;10.36;100.00
16481;BME280;44634;54.110;12.138;2023-03-20T03:31:20;101458.81;;;10.58;100.00
16481;BME280;44634;54.110;12.138;2023-03-20T03:33:50;101451.09;;;10.55;100.00
16481;BME280;44634;54.110;12.138;2023-03-20T03:36:24;101439.78;;;10.64;100.00
16481;BME280;44634;54.110;12.138;2023-03-20T03:38:59;101451.09;;;10.33;100.00
16481;BME280;44634;54.110;12.138;2023-03-20T03:41:31;101461.31;;;10.60;100.00
16481;BME280;44634;54.110;12.138;2023-03-20T03:44:06;101451.91;;;10.56;100.00
16481;BME280;44634;54.110;12.138;2023-03-20T03:46:41;101448.44;;;10.55;100.00
16481;BME280;44634;54.110;12.138;2023-03-20T03:49:14;101446.66;;;10.67;100.00
16481;BME280;44634;54.110;12.138;2023-03-20T03:51:45;101457.72;;;10.72;100.00
16481;BME280;44634;54.110;12.138;2023-03-20T03:54:18;101432.94;;;10.51;100.00
16481;BME280;44634;54.110;12.138;2023-03-20T03:56:50;101418.75;;;10.85;100.00
16481;BME280;44634;54.110;12.138;2023-03-20T03:59:22;101375.25;;;11.10;100.00
16481;BME280;44634;54.110;12.138;2023-03-20T04:01:51;101353.72;;;10.71;100.00
16481;BME280;44634;54.110;12.138;2023-03-20T04:04:21;101370.19;;;10.53;100.00
16481;BME280;44634;54.110;12.138;2023-03-20T04:06:50;101380.66;;;10.77;100.00
16481;BME280;44634;54.110;12.138;2023-03-20T04:09:19;101367.31;;;10.56;100.00
16481;BME280;44634;54.110;12.138;2023-03-20T04:11:50;101351.81;;;10.40;100.00
16481;BME280;44634;54.110;12.138;2023-03-20T04:14:19;101377.53;;;10.60;100.00
16481;BME280;44634;54.110;12.138;2023-03-20T04:16:47;101381.75;;;10.63;100.00
16481;BME280;44634;54.110;12.138;2023-03-20T04:19:14;101362.34;;;10.85;100.00
16481;BME280;44634;54.110;12.138;2023-03-20T04:21:42;101325.81;;;11.11;100.00
16481;BME280;44634;54.110;12.138;2023-03-20T04:24:11;101309.25;;;10.54;100.00
16481;BME280;44634;54.110;12.138;2023-03-20T04:26:40;101311.34;;;10.94;100.00
16481;BME280;44634;54.110;12.138;2023-03-20T04:29:08;101306.56;;;10.88;100.00
16481;BME280;44634;54.110;12.138;2023-03-20T04:31:36;101285.03;;;11.13;100.00
16481;BME280;44634;54.110;12.138;2023-03-20T04:34:04;101286.22;;;10.56;100.00
16481;BME280;44634;54.110;12.138;2023-03-20T04:36:32;101311.75;;;10.78;100.00
16481;BME280;44634;54.110;12.138;2023-03-20T04:39:00;101296.78;;;10.56;100.00
16481;BME280;44634;54.110;12.138;2023-03-20T04:41:28;101319.25;;;10.39;100.00
16481;BME280;44634;54.110;12.138;2023-03-20T04:43:57;101321.06;;;10.50;100.00
16481;BME280;44634;54.110;12.138;2023-03-20T04:46:24;101300.16;;;10.90;100.00
16481;BME280;44634;54.110;12.138;2023-03-20T04:48:52;101312.16;;;10.51;100.00
16481;BME280;44634;54.110;12.138;2023-03-20T04:51:20;101295.59;;;10.49;100.00
16481;BME280;44634;54.110;12.138;2023-03-20T04:53:48;101294.94;;;10.68;100.00
16481;BME280;44634;54.110;12.138;2023-03-20T04:56:16;101304.25;;;10.40;100.00
16481;BME280;44634;54.110;12.138;2023-03-20T04:58:43;101303.53;;;10.49;100.00
16481;BME280;44634;54.110;12.138;2023-03-20T05:01:13;101272.81;;;10.69;100.00
16481;BME280;44634;54.110;12.138;2023-03-20T05:03:40;101265.38;;;10.63;100.00
16481;BME280;44634;54.110;12.138;2023-03-20T05:06:09;101272.75;;;10.59;100.00
16481;BME280;44634;54.110;12.138;2023-03-20T05:08:36;101275.59;;;10.99;100.00
16481;BME280;44634;54.110;12.138;2023-03-20T05:11:05;101259.06;;;10.86;100.00
16481;BME280;44634;54.110;12.138;2023-03-20T05:13:33;101253.88;;;10.53;100.00
16481;BME280;44634;54.110;12.138;2023-03-20T05:16:01;101257.03;;;10.79;100.00
16481;BME280;44634;54.110;12.138;2023-03-20T05:18:30;101239.63;;;10.76;100.00
16481;BME280;44634;54.110;12.138;2023-03-20T05:20:58;101276.97;;;10.17;100.00
16481;BME280;44634;54.110;12.138;2023-03-20T05:23:26;101309.66;;;10.38;100.00
16481;BME280;44634;54.110;12.138;2023-03-20T05:25:54;101278.75;;;10.61;100.00
16481;BME280;44634;54.110;12.138;2023-03-20T05:28:22;101286.00;;;10.37;100.00
16481;BME280;44634;54.110;12.138;2023-03-20T05:30:49;101296.06;;;10.09;100.00
16481;BME280;44634;54.110;12.138;2023-03-20T05:33:17;101303.00;;;10.66;100.00
16481;BME280;44634;54.110;12.138;2023-03-20T05:35:46;101297.91;;;10.42;100.00
16481;BME280;44634;54.110;12.138;2023-03-20T05:38:14;101284.44;;;10.34;100.00
16481;BME280;44634;54.110;12.138;2023-03-20T05:40:42;101265.72;;;10.69;100.00
16481;BME280;44634;54.110;12.138;2023-03-20T05:43:10;101245.81;;;10.54;100.00
16481;BME280;44634;54.110;12.138;2023-03-20T05:45:37;101276.84;;;10.41;100.00
16481;BME280;44634;54.110;12.138;2023-03-20T05:48:05;101245.50;;;10.25;100.00
16481;BME280;44634;54.110;12.138;2023-03-20T05:50:33;101242.72;;;10.38;100.00
16481;BME280;44634;54.110;12.138;2023-03-20T05:53:02;101226.75;;;10.39;100.00
16481;BME280;44634;54.110;12.138;2023-03-20T05:55:30;101270.28;;;10.13;100.00
16481;BME280;44634;54.110;12.138;2023-03-20T05:57:58;101257.16;;;10.45;100.00
16481;BME280;44634;54.110;12.138;2023-03-20T06:00:26;101243.72;;;10.03;100.00
16481;BME280;44634;54.110;12.138;2023-03-20T06:02:54;101255.09;;;10.49;100.00
16481;BME280;44634;54.110;12.138;2023-03-20T06:05:22;101242.50;;;10.19;100.00
16481;BME280;44634;54.110;12.138;2023-03-20T06:07:50;101266.41;;;9.95;100.00
16481;BME280;44634;54.110;12.138;2023-03-20T06:10:19;101287.91;;;10.12;100.00
16481;BME280;44634;54.110;12.138;2023-03-20T06:12:47;101299.06;;;9.94;100.00
16481;BME280;44634;54.110;12.138;2023-03-20T06:15:16;101326.31;;;9.94;100.00
16481;BME280;44634;54.110;12.138;2023-03-20T06:17:43;101310.75;;;10.25;100.00
16481;BME280;44634;54.110;12.138;2023-03-20T06:20:12;101326.72;;;10.23;100.00
16481;BME280;44634;54.110;12.138;2023-03-20T06:22:39;101339.44;;;10.07;100.00
16481;BME280;44634;54.110;12.138;2023-03-20T06:25:25;101323.19;;;10.11;100.00
16481;BME280;44634;54.110;12.138;2023-03-20T06:27:52;101307.59;;;10.20;100.00
16481;BME280;44634;54.110;12.138;2023-03-20T06:30:20;101341.59;;;9.91;100.00
16481;BME280;44634;54.110;12.138;2023-03-20T06:32:48;101324.03;;;9.78;100.00
16481;BME280;44634;54.110;12.138;2023-03-20T06:35:16;101329.56;;;9.87;100.00
16481;BME280;44634;54.110;12.138;2023-03-20T06:37:44;101352.34;;;9.76;100.00
16481;BME280;44634;54.110;12.138;2023-03-20T06:40:12;101364.41;;;10.03;100.00
16481;BME280;44634;54.110;12.138;2023-03-20T06:42:41;101364.09;;;9.61;100.00
16481;BME280;44634;54.110;12.138;2023-03-20T06:45:10;101361.59;;;9.71;100.00
16481;BME280;44634;54.110;12.138;2023-03-20T06:47:38;101368.88;;;9.67;100.00
16481;BME280;44634;54.110;12.138;2023-03-20T06:50:08;101338.34;;;9.87;100.00
16481;BME280;44634;54.110;12.138;2023-03-20T06:52:36;101329.47;;;9.99;100.00
16481;BME280;44634;54.110;12.138;2023-03-20T06:55:04;101290.16;;;10.51;100.00
16481;BME280;44634;54.110;12.138;2023-03-20T06:57:32;101252.41;;;10.60;100.00
16481;BME280;44634;54.110;12.138;2023-03-20T07:00:02;101252.84;;;10.33;100.00
16481;BME280;44634;54.110;12.138;2023-03-20T07:02:30;101238.13;;;10.51;100.00
16481;BME280;44634;54.110;12.138;2023-03-20T07:04:58;101240.09;;;10.27;100.00
16481;BME280;44634;54.110;12.138;2023-03-20T07:07:26;101231.16;;;10.50;100.00
16481;BME280;44634;54.110;12.138;2023-03-20T07:09:54;101203.00;;;10.28;100.00
16481;BME280;44634;54.110;12.138;2023-03-20T07:12:22;101220.91;;;10.02;100.00
16481;BME280;44634;54.110;12.138;2023-03-20T07:14:54;101215.75;;;10.55;100.00
16481;BME280;44634;54.110;12.138;2023-03-20T07:17:23;101221.84;;;10.12;100.00
16481;BME280;44634;54.110;12.138;2023-03-20T07:19:51;101249.13;;;9.91;100.00
16481;BME280;44634;54.110;12.138;2023-03-20T07:22:21;101237.66;;;10.57;100.00
16481;BME280;44634;54.110;12.138;2023-03-20T07:24:49;101208.16;;;10.30;100.00
16481;BME280;44634;54.110;12.138;2023-03-20T07:27:17;101194.03;;;10.52;100.00
16481;BME280;44634;54.110;12.138;2023-03-20T07:29:45;101183.97;;;10.46;100.00
16481;BME280;44634;54.110;12.138;2023-03-20T07:32:13;101176.31;;;10.63;100.00
16481;BME280;44634;54.110;12.138;2023-03-20T07:34:43;101175.16;;;10.56;100.00
16481;BME280;44634;54.110;12.138;2023-03-20T07:37:12;101148.59;;;10.99;100.00
16481;BME280;44634;54.110;12.138;2023-03-20T07:39:41;101132.13;;;10.96;100.00
16481;BME280;44634;54.110;12.138;2023-03-20T07:42:08;101147.53;;;10.70;100.00
16481;BME280;44634;54.110;12.138;2023-03-20T07:44:36;101139.81;;;10.25;100.00
16481;BME280;44634;54.110;12.138;2023-03-20T07:47:04;101153.22;;;10.65;100.00
16481;BME280;44634;54.110;12.138;2023-03-20T07:49:32;101140.66;;;10.79;100.00
16481;BME280;44634;54.110;12.138;2023-03-20T07:52:02;101142.72;;;10.75;100.00
16481;BME280;44634;54.110;12.138;2023-03-20T07:54:30;101128.50;;;10.55;100.00
16481;BME280;44634;54.110;12.138;2023-03-20T07:56:57;101141.56;;;10.36;100.00
16481;BME280;44634;54.110;12.138;2023-03-20T07:59:25;101154.63;;;10.69;100.00
16481;BME280;44634;54.110;12.138;2023-03-20T08:01:53;101160.59;;;10.83;100.00
16481;BME280;44634;54.110;12.138;2023-03-20T08:04:20;101149.03;;;10.63;100.00
16481;BME280;44634;54.110;12.138;2023-03-20T08:06:49;101154.25;;;10.21;100.00
16481;BME280;44634;54.110;12.138;2023-03-20T08:09:18;101136.16;;;10.37;100.00
16481;BME280;44634;54.110;12.138;2023-03-20T08:11:46;101143.44;;;10.13;100.00
16481;BME280;44634;54.110;12.138;2023-03-20T08:14:14;101143.91;;;10.07;100.00
16481;BME280;44634;54.110;12.138;2023-03-20T08:16:42;101170.84;;;9.90;100.00
16481;BME280;44634;54.110;12.138;2023-03-20T08:19:09;101176.97;;;10.01;100.00
16481;BME280;44634;54.110;12.138;2023-03-20T08:21:38;101172.28;;;9.94;100.00
16481;BME280;44634;54.110;12.138;2023-03-20T08:24:06;101187.25;;;10.16;100.00
16481;BME280;44634;54.110;12.138;2023-03-20T08:26:35;101187.88;;;10.08;100.00
16481;BME280;44634;54.110;12.138;2023-03-20T08:29:03;101180.13;;;9.84;100.00
16481;BME280;44634;54.110;12.138;2023-03-20T08:31:31;101183.44;;;9.97;100.00
16481;BME280;44634;54.110;12.138;2023-03-20T08:33:59;101173.97;;;10.49;100.00
16481;BME280;44634;54.110;12.138;2023-03-20T08:36:27;101148.19;;;10.41;100.00
16481;BME280;44634;54.110;12.138;2023-03-20T08:38:55;101142.53;;;10.35;100.00
16481;BME280;44634;54.110;12.138;2023-03-20T08:41:23;101140.06;;;10.22;100.00
16481;BME280;44634;54.110;12.138;2023-03-20T08:43:52;101161.72;;;9.94;100.00
16481;BME280;44634;54.110;12.138;2023-03-20T08:46:19;101155.19;;;10.20;100.00
16481;BME280;44634;54.110;12.138;2023-03-20T08:48:47;101173.97;;;9.83;100.00
16481;BME280;44634;54.110;12.138;2023-03-20T08:51:15;101211.44;;;9.77;100.00
16481;BME280;44634;54.110;12.138;2023-03-20T08:53:43;101215.75;;;9.78;100.00
16481;BME280;44634;54.110;12.138;2023-03-20T08:56:10;101193.31;;;9.84;100.00
16481;BME280;44634;54.110;12.138;2023-03-20T08:58:38;101184.50;;;10.28;100.00
16481;BME280;44634;54.110;12.138;2023-03-20T09:01:08;101173.03;;;9.84;100.00
16481;BME280;44634;54.110;12.138;2023-03-20T09:03:36;101176.00;;;9.91;100.00
16481;BME280;44634;54.110;12.138;2023-03-20T09:06:05;101189.28;;;10.34;100.00
16481;BME280;44634;54.110;12.138;2023-03-20T09:08:34;101142.69;;;10.54;100.00
16481;BME280;44634;54.110;12.138;2023-03-20T09:11:02;101128.41;;;10.57;100.00
16481;BME280;44634;54.110;12.138;2023-03-20T09:13:30;101136.94;;;10.28;100.00
16481;BME280;44634;54.110;12.138;2023-03-20T09:15:58;101141.16;;;9.97;100.00
16481;BME280;44634;54.110;12.138;2023-03-20T09:18:27;101139.50;;;10.39;100.00
16481;BME280;44634;54.110;12.138;2023-03-20T09:20:55;101128.09;;;10.71;100.00
16481;BME280;44634;54.110;12.138;2023-03-20T09:23:23;101119.75;;;10.23;100.00
16481;BME280;44634;54.110;12.138;2023-03-20T09:25:50;101140.31;;;10.08;100.00
16481;BME280;44634;54.110;12.138;2023-03-20T09:28:18;101157.66;;;9.90;100.00
16481;BME280;44634;54.110;12.138;2023-03-20T09:30:46;101153.66;;;10.06;100.00
16481;BME280;44634;54.110;12.138;2023-03-20T09:33:14;101130.28;;;10.34;100.00
16481;BME280;44634;54.110;12.138;2023-03-20T09:35:45;101129.69;;;10.41;100.00
16481;BME280;44634;54.110;12.138;2023-03-20T09:38:13;101110.13;;;10.54;100.00
16481;BME280;44634;54.110;12.138;2023-03-20T09:40:49;101121.94;;;10.50;100.00
16481;BME280;44634;54.110;12.138;2023-03-20T09:43:25;101141.72;;;10.12;100.00
16481;BME280;44634;54.110;12.138;2023-03-20T09:46:03;101128.19;;;10.69;100.00
16481;BME280;44634;54.110;12.138;2023-03-20T09:48:40;101124.41;;;10.62;100.00
16481;BME280;44634;54.110;12.138;2023-03-20T09:51:19;101115.44;;;10.75;100.00
16481;BME280;44634;54.110;12.138;2023-03-20T09:53:52;101110.59;;;10.80;100.00
16481;BME280;44634;54.110;12.138;2023-03-20T09:56:27;101110.41;;;11.23;100.00
16481;BME280;44634;54.110;12.138;2023-03-20T09:58:58;101114.78;;;10.82;100.00
16481;BME280;44634;54.110;12.138;2023-03-20T10:01:30;101100.53;;;10.73;100.00
16481;BME280;44634;54.110;12.138;2023-03-20T10:04:03;101099.69;;;10.94;100.00
16481;BME280;44634;54.110;12.138;2023-03-20T10:06:34;101111.09;;;10.53;100.00
16481;BME280;44634;54.110;12.138;2023-03-20T10:09:12;101117.91;;;11.18;100.00
16481;BME280;44634;54.110;12.138;2023-03-20T10:11:55;101107.16;;;10.68;100.00
16481;BME280;44634;54.110;12.138;2023-03-20T10:14:32;101123.63;;;10.71;100.00
16481;BME280;44634;54.110;12.138;2023-03-20T10:17:14;101129.19;;;10.89;100.00
16481;BME280;44634;54.110;12.138;2023-03-20T10:19:50;101113.25;;;10.59;100.00
16481;BME280;44634;54.110;12.138;2023-03-20T10:22:22;101096.25;;;10.82;100.00
16481;BME280;44634;54.110;12.138;2023-03-20T10:24:55;101113.69;;;10.85;100.00
16481;BME280;44634;54.110;12.138;2023-03-20T10:27:28;101093.94;;;10.89;100.00
16481;BME280;44634;54.110;12.138;2023-03-20T10:30:06;101102.53;;;10.60;100.00
16481;BME280;44634;54.110;12.138;2023-03-20T10:32:43;101085.38;;;10.76;100.00
16481;BME280;44634;54.110;12.138;2023-03-20T10:35:20;101084.22;;;10.89;100.00
16481;BME280;44634;54.110;12.138;2023-03-20T10:38:14;101081.75;;;10.56;100.00
16481;BME280;44634;54.110;12.138;2023-03-20T10:40:45;101060.97;;;10.93;100.00
16481;BME280;44634;54.110;12.138;2023-03-20T10:43:17;101065.06;;;10.76;100.00
16481;BME280;44634;54.110;12.138;2023-03-20T10:45:47;101048.50;;;11.05;100.00
16481;BME280;44634;54.110;12.138;2023-03-20T10:48:21;101090.69;;;10.11;100.00
16481;BME280;44634;54.110;12.138;2023-03-20T10:50:53;101082.63;;;11.08;100.00
16481;BME280;44634;54.110;12.138;2023-03-20T10:53:36;101092.22;;;10.78;100.00
16481;BME280;44634;54.110;12.138;2023-03-20T10:56:07;101076.69;;;11.25;100.00
16481;BME280;44634;54.110;12.138;2023-03-20T10:58:38;101070.72;;;10.92;100.00
16481;BME280;44634;54.110;12.138;2023-03-20T11:01:06;101061.78;;;11.14;100.00
16481;BME280;44634;54.110;12.138;2023-03-20T11:03:34;101058.16;;;11.15;100.00
16481;BME280;44634;54.110;12.138;2023-03-20T11:06:10;101048.84;;;10.90;100.00
16481;BME280;44634;54.110;12.138;2023-03-20T11:08:44;101035.09;;;11.37;100.00
16481;BME280;44634;54.110;12.138;2023-03-20T11:11:20;101042.47;;;11.33;100.00
16481;BME280;44634;54.110;12.138;2023-03-20T11:13:48;101059.19;;;10.52;100.00
16481;BME280;44634;54.110;12.138;2023-03-20T11:16:19;101051.06;;;11.16;100.00
16481;BME280;44634;54.110;12.138;2023-03-20T11:18:48;101027.19;;;11.46;100.00
16481;BME280;44634;54.110;12.138;2023-03-20T11:21:20;101043.34;;;11.03;100.00
16481;BME280;44634;54.110;12.138;2023-03-20T11:23:50;101034.50;;;11.23;100.00
16481;BME280;44634;54.110;12.138;2023-03-20T11:26:30;101028.22;;;11.24;100.00
16481;BME280;44634;54.110;12.138;2023-03-20T11:28:59;101042.19;;;10.96;100.00
16481;BME280;44634;54.110;12.138;2023-03-20T11:31:31;101030.53;;;11.08;100.00
16481;BME280;44634;54.110;12.138;2023-03-20T11:34:10;101015.06;;;11.44;100.00
16481;BME280;44634;54.110;12.138;2023-03-20T11:36:38;101011.88;;;11.59;100.00
16481;BME280;44634;54.110;12.138;2023-03-20T11:39:11;101006.97;;;11.45;100.00
16481;BME280;44634;54.110;12.138;2023-03-20T11:41:41;101039.31;;;11.09;100.00
16481;BME280;44634;54.110;12.138;2023-03-20T11:44:22;101041.50;;;11.34;100.00
16481;BME280;44634;54.110;12.138;2023-03-20T11:46:55;101053.88;;;10.93;100.00
16481;BME280;44634;54.110;12.138;2023-03-20T11:49:24;101069.31;;;11.19;100.00
16481;BME280;44634;54.110;12.138;2023-03-20T11:51:55;101069.75;;;10.93;100.00
16481;BME280;44634;54.110;12.138;2023-03-20T11:54:28;101069.97;;;11.11;100.00
16481;BME280;44634;54.110;12.138;2023-03-20T11:56:58;101084.25;;;11.29;100.00
16481;BME280;44634;54.110;12.138;2023-03-20T11:59:29;101083.81;;;11.24;100.00
16481;BME280;44634;54.110;12.138;2023-03-20T12:01:59;101096.47;;;10.90;100.00
16481;BME280;44634;54.110;12.138;2023-03-20T12:04:30;101098.19;;;11.01;100.00
16481;BME280;44634;54.110;12.138;2023-03-20T12:07:03;101093.94;;;10.89;100.00
16481;BME280;44634;54.110;12.138;2023-03-20T12:09:41;101089.09;;;11.24;100.00
16481;BME280;44634;54.110;12.138;2023-03-20T12:12:15;101084.16;;;11.10;100.00
16481;BME280;44634;54.110;12.138;2023-03-20T12:14:53;101091.59;;;11.16;100.00
16481;BME280;44634;54.110;12.138;2023-03-20T12:17:32;101082.88;;;11.05;100.00
16481;BME280;44634;54.110;12.138;2023-03-20T12:20:06;101082.97;;;10.93;100.00
16481;BME280;44634;54.110;12.138;2023-03-20T12:22:43;101079.00;;;11.09;100.00
16481;BME280;44634;54.110;12.138;2023-03-20T12:25:21;101075.16;;;10.92;100.00
16481;BME280;44634;54.110;12.138;2023-03-20T12:27:56;101085.97;;;11.10;100.00
16481;BME280;44634;54.110;12.138;2023-03-20T12:30:33;101063.38;;;11.36;100.00
16481;BME280;44634;54.110;12.138;2023-03-20T12:33:06;101034.84;;;11.49;100.00
16481;BME280;44634;54.110;12.138;2023-03-20T12:35:41;101032.03;;;11.31;100.00
16481;BME280;44634;54.110;12.138;2023-03-20T12:38:20;101045.41;;;11.30;100.00
16481;BME280;44634;54.110;12.138;2023-03-20T12:40:54;101047.72;;;11.23;100.00
16481;BME280;44634;54.110;12.138;2023-03-20T12:43:30;101069.22;;;10.99;100.00
16481;BME280;44634;54.110;12.138;2023-03-20T12:46:07;101064.81;;;11.10;100.00
16481;BME280;44634;54.110;12.138;2023-03-20T12:48:49;101071.81;;;10.90;100.00
16481;BME280;44634;54.110;12.138;2023-03-20T12:51:30;101058.63;;;11.30;100.00
16481;BME280;44634;54.110;12.138;2023-03-20T12:54:12;101038.75;;;11.55;100.00
16481;BME280;44634;54.110;12.138;2023-03-20T12:56:56;101024.59;;;11.85;100.00